sensor_id;sensor_type;location;lat;lon;timestamp;temperature;humidity
20208;DHT22;10263;48.716;8.760;2022-12-19T00:00:47;-1.10;99.90
20208;DHT22;10263;48.716;8.760;2022-12-19T00:03:15;-1.10;99.90
20208;DHT22;10263;48.716;8.760;2022-12-19T00:08:14;-1.10;99.90
20208;DHT22;10263;48.716;8.760;2022-12-19T00:10:42;-0.90;99.90
20208;DHT22;10263;48.716;8.760;2022-12-19T00:18:03;-1.00;99.90
20208;DHT22;10263;48.716;8.760;2022-12-19T00:20:31;-1.00;99.90
20208;DHT22;10263;48.716;8.760;2022-12-19T00:37:42;-0.90;99.90
20208;DHT22;10263;48.716;8.760;2022-12-19T00:40:10;-1.00;99.90
20208;DHT22;10263;48.716;8.760;2022-12-19T00:45:05;-0.90;99.90
20208;DHT22;10263;48.716;8.760;2022-12-19T00:49:59;-1.00;99.90
20208;DHT22;10263;48.716;8.760;2022-12-19T00:54:57;-0.80;99.90
20208;DHT22;10263;48.716;8.760;2022-12-19T01:12:10;0.20;99.90
20208;DHT22;10263;48.716;8.760;2022-12-19T01:14:55;-0.60;99.90
20208;DHT22;10263;48.716;8.760;2022-12-19T01:17:22;-0.60;99.90
20208;DHT22;10263;48.716;8.760;2022-12-19T01:19:51;-0.90;99.90
20208;DHT22;10263;48.716;8.760;2022-12-19T01:27:15;-0.70;99.90
20208;DHT22;10263;48.716;8.760;2022-12-19T01:29:42;-0.90;99.90
20208;DHT22;10263;48.716;8.760;2022-12-19T01:32:09;-1.00;99.90
20208;DHT22;10263;48.716;8.760;2022-12-19T01:39:30;-0.80;99.90
20208;DHT22;10263;48.716;8.760;2022-12-19T01:44:25;-0.90;99.90
20208;DHT22;10263;48.716;8.760;2022-12-19T01:46:54;-0.60;99.90
20208;DHT22;10263;48.716;8.760;2022-12-19T01:49:27;-0.60;99.90
20208;DHT22;10263;48.716;8.760;2022-12-19T01:51:57;-0.80;99.90
20208;DHT22;10263;48.716;8.760;2022-12-19T01:54:28;-0.70;99.90
20208;DHT22;10263;48.716;8.760;2022-12-19T01:57:00;-1.30;99.90
20208;DHT22;10263;48.716;8.760;2022-12-19T01:59:33;-0.70;99.90
20208;DHT22;10263;48.716;8.760;2022-12-19T02:02:06;-0.70;99.90
20208;DHT22;10263;48.716;8.760;2022-12-19T02:04:34;-0.80;99.90
20208;DHT22;10263;48.716;8.760;2022-12-19T02:07:03;-0.60;99.90
20208;DHT22;10263;48.716;8.760;2022-12-19T02:09:31;-0.70;99.90
20208;DHT22;10263;48.716;8.760;2022-12-19T02:11:58;-0.60;99.90
20208;DHT22;10263;48.716;8.760;2022-12-19T02:14:26;-0.60;99.90
20208;DHT22;10263;48.716;8.760;2022-12-19T02:17:00;-0.60;99.90
20208;DHT22;10263;48.716;8.760;2022-12-19T02:19:49;-0.60;99.90
20208;DHT22;10263;48.716;8.760;2022-12-19T02:22:25;-0.70;99.90
20208;DHT22;10263;48.716;8.760;2022-12-19T02:25:24;-0.50;99.90
20208;DHT22;10263;48.716;8.760;2022-12-19T02:28:20;-0.60;99.90
20208;DHT22;10263;48.716;8.760;2022-12-19T02:31:03;-0.50;99.90
20208;DHT22;10263;48.716;8.760;2022-12-19T02:33:37;-0.40;99.90
20208;DHT22;10263;48.716;8.760;2022-12-19T02:36:10;-0.50;99.90
20208;DHT22;10263;48.716;8.760;2022-12-19T02:38:41;-0.50;99.90
20208;DHT22;10263;48.716;8.760;2022-12-19T02:41:14;-0.30;99.90
20208;DHT22;10263;48.716;8.760;2022-12-19T02:43:45;-0.40;99.90
20208;DHT22;10263;48.716;8.760;2022-12-19T02:46:15;-0.60;99.90
20208;DHT22;10263;48.716;8.760;2022-12-19T02:48:42;-0.50;99.90
20208;DHT22;10263;48.716;8.760;2022-12-19T02:53:37;-0.50;99.90
20208;DHT22;10263;48.716;8.760;2022-12-19T03:02:12;-0.10;99.90
20208;DHT22;10263;48.716;8.760;2022-12-19T03:04:46;-0.40;99.90
20208;DHT22;10263;48.716;8.760;2022-12-19T03:07:21;-0.20;99.90
20208;DHT22;10263;48.716;8.760;2022-12-19T03:09:59;-0.10;99.90
20208;DHT22;10263;48.716;8.760;2022-12-19T03:12:34;-0.10;99.90
20208;DHT22;10263;48.716;8.760;2022-12-19T03:17:33;-0.20;99.90
20208;DHT22;10263;48.716;8.760;2022-12-19T03:20:07;-0.10;99.90
20208;DHT22;10263;48.716;8.760;2022-12-19T03:25:02;-0.20;99.90
20208;DHT22;10263;48.716;8.760;2022-12-19T03:27:32;0.00;99.90
20208;DHT22;10263;48.716;8.760;2022-12-19T03:30:01;0.10;99.90
20208;DHT22;10263;48.716;8.760;2022-12-19T03:32:31;0.10;99.90
20208;DHT22;10263;48.716;8.760;2022-12-19T03:35:03;0.10;99.90
20208;DHT22;10263;48.716;8.760;2022-12-19T03:37:36;0.10;99.90
20208;DHT22;10263;48.716;8.760;2022-12-19T03:40:08;0.10;99.90
20208;DHT22;10263;48.716;8.760;2022-12-19T03:42:37;0.20;99.90
20208;DHT22;10263;48.716;8.760;2022-12-19T03:45:25;0.20;99.90
20208;DHT22;10263;48.716;8.760;2022-12-19T03:47:57;0.20;99.90
20208;DHT22;10263;48.716;8.760;2022-12-19T03:50:31;0.20;99.90
20208;DHT22;10263;48.716;8.760;2022-12-19T03:53:07;0.10;99.90
20208;DHT22;10263;48.716;8.760;2022-12-19T03:55:41;0.20;99.90
20208;DHT22;10263;48.716;8.760;2022-12-19T03:58:15;0.20;99.90
20208;DHT22;10263;48.716;8.760;2022-12-19T04:00:45;0.20;99.90
20208;DHT22;10263;48.716;8.760;2022-12-19T04:03:14;0.20;99.90
20208;DHT22;10263;48.716;8.760;2022-12-19T04:05:43;0.30;99.90
20208;DHT22;10263;48.716;8.760;2022-12-19T04:10:42;0.20;99.90
20208;DHT22;10263;48.716;8.760;2022-12-19T04:13:12;0.30;99.90
20208;DHT22;10263;48.716;8.760;2022-12-19T04:15:47;0.30;99.90
20208;DHT22;10263;48.716;8.760;2022-12-19T04:18:18;0.30;99.90
20208;DHT22;10263;48.716;8.760;2022-12-19T04:20:51;0.40;99.90
20208;DHT22;10263;48.716;8.760;2022-12-19T04:23:25;0.30;99.90
20208;DHT22;10263;48.716;8.760;2022-12-19T04:25:58;0.40;99.90
20208;DHT22;10263;48.716;8.760;2022-12-19T04:28:30;0.40;99.90
20208;DHT22;10263;48.716;8.760;2022-12-19T04:33:27;-0.90;99.90
20208;DHT22;10263;48.716;8.760;2022-12-19T04:35:54;0.30;99.90
20208;DHT22;10263;48.716;8.760;2022-12-19T04:45:42;0.40;99.90
20208;DHT22;10263;48.716;8.760;2022-12-19T04:48:09;0.50;99.90
20208;DHT22;10263;48.716;8.760;2022-12-19T04:50:37;0.70;99.90
20208;DHT22;10263;48.716;8.760;2022-12-19T04:53:04;0.50;99.90
20208;DHT22;10263;48.716;8.760;2022-12-19T05:00:25;0.60;99.90
20208;DHT22;10263;48.716;8.760;2022-12-19T05:20:05;0.70;99.90
20208;DHT22;10263;48.716;8.760;2022-12-19T05:25:01;0.80;99.90
20208;DHT22;10263;48.716;8.760;2022-12-19T05:27:28;0.80;99.90
20208;DHT22;10263;48.716;8.760;2022-12-19T05:34:49;1.10;99.90
20208;DHT22;10263;48.716;8.760;2022-12-19T05:42:12;0.80;99.90
20208;DHT22;10263;48.716;8.760;2022-12-19T05:44:38;0.80;99.90
20208;DHT22;10263;48.716;8.760;2022-12-19T05:59:22;0.90;99.90
20208;DHT22;10263;48.716;8.760;2022-12-19T06:01:49;1.00;99.90
20208;DHT22;10263;48.716;8.760;2022-12-19T06:06:43;0.90;99.90
20208;DHT22;10263;48.716;8.760;2022-12-19T06:16:32;1.00;99.90
20208;DHT22;10263;48.716;8.760;2022-12-19T06:21:26;1.10;99.90
20208;DHT22;10263;48.716;8.760;2022-12-19T06:23:53;1.40;99.90
20208;DHT22;10263;48.716;8.760;2022-12-19T06:26:21;0.90;99.90
20208;DHT22;10263;48.716;8.760;2022-12-19T06:28:48;1.20;99.90
20208;DHT22;10263;48.716;8.760;2022-12-19T06:31:17;1.10;99.90
20208;DHT22;10263;48.716;8.760;2022-12-19T06:33:45;4.50;99.90
20208;DHT22;10263;48.716;8.760;2022-12-19T06:36:15;1.10;99.90
20208;DHT22;10263;48.716;8.760;2022-12-19T06:38:42;1.10;99.90
20208;DHT22;10263;48.716;8.760;2022-12-19T06:41:09;1.10;99.90
20208;DHT22;10263;48.716;8.760;2022-12-19T06:43:56;1.10;99.90
20208;DHT22;10263;48.716;8.760;2022-12-19T06:46:23;1.10;99.90
20208;DHT22;10263;48.716;8.760;2022-12-19T06:48:52;1.20;99.90
20208;DHT22;10263;48.716;8.760;2022-12-19T06:56:14;1.00;99.90
20208;DHT22;10263;48.716;8.760;2022-12-19T07:01:15;1.20;99.90
20208;DHT22;10263;48.716;8.760;2022-12-19T07:03:42;1.30;99.90
20208;DHT22;10263;48.716;8.760;2022-12-19T07:06:12;1.30;99.90
20208;DHT22;10263;48.716;8.760;2022-12-19T07:11:06;1.20;99.90
20208;DHT22;10263;48.716;8.760;2022-12-19T07:13:33;1.40;99.90
20208;DHT22;10263;48.716;8.760;2022-12-19T07:16:01;1.30;99.90
20208;DHT22;10263;48.716;8.760;2022-12-19T07:18:30;1.30;99.90
20208;DHT22;10263;48.716;8.760;2022-12-19T07:20:59;1.30;99.90
20208;DHT22;10263;48.716;8.760;2022-12-19T07:23:28;1.50;99.90
20208;DHT22;10263;48.716;8.760;2022-12-19T07:30:49;1.70;99.90
20208;DHT22;10263;48.716;8.760;2022-12-19T07:33:16;1.60;99.90
20208;DHT22;10263;48.716;8.760;2022-12-19T07:38:10;1.40;99.90
20208;DHT22;10263;48.716;8.760;2022-12-19T07:40:38;1.60;99.90
20208;DHT22;10263;48.716;8.760;2022-12-19T07:43:06;1.50;99.90
20208;DHT22;10263;48.716;8.760;2022-12-19T07:45:35;1.50;99.90
20208;DHT22;10263;48.716;8.760;2022-12-19T07:48:03;1.60;99.90
20208;DHT22;10263;48.716;8.760;2022-12-19T07:50:31;1.50;99.90
20208;DHT22;10263;48.716;8.760;2022-12-19T07:55:26;1.70;99.90
20208;DHT22;10263;48.716;8.760;2022-12-19T07:57:54;1.70;99.90
20208;DHT22;10263;48.716;8.760;2022-12-19T08:00:21;1.60;99.90
20208;DHT22;10263;48.716;8.760;2022-12-19T08:15:08;1.70;99.90
20208;DHT22;10263;48.716;8.760;2022-12-19T08:20:04;1.80;99.90
20208;DHT22;10263;48.716;8.760;2022-12-19T08:22:31;1.90;99.90
20208;DHT22;10263;48.716;8.760;2022-12-19T08:27:26;4.30;99.90
20208;DHT22;10263;48.716;8.760;2022-12-19T08:32:21;2.10;99.90
20208;DHT22;10263;48.716;8.760;2022-12-19T08:34:48;2.10;99.90
20208;DHT22;10263;48.716;8.760;2022-12-19T08:49:32;2.50;99.90
20208;DHT22;10263;48.716;8.760;2022-12-19T09:04:17;2.80;99.90
20208;DHT22;10263;48.716;8.760;2022-12-19T09:06:45;2.80;99.90
20208;DHT22;10263;48.716;8.760;2022-12-19T09:16:33;2.90;99.90
20208;DHT22;10263;48.716;8.760;2022-12-19T09:19:00;3.10;99.90
20208;DHT22;10263;48.716;8.760;2022-12-19T09:21:29;3.30;99.90
20208;DHT22;10263;48.716;8.760;2022-12-19T09:23:59;3.10;99.90
20208;DHT22;10263;48.716;8.760;2022-12-19T09:26:26;3.10;99.90
20208;DHT22;10263;48.716;8.760;2022-12-19T09:31:22;3.60;99.90
20208;DHT22;10263;48.716;8.760;2022-12-19T09:33:50;3.40;99.90
20208;DHT22;10263;48.716;8.760;2022-12-19T09:36:19;3.50;99.90
20208;DHT22;10263;48.716;8.760;2022-12-19T09:41:39;3.40;99.90
20208;DHT22;10263;48.716;8.760;2022-12-19T09:44:14;3.60;99.90
20208;DHT22;10263;48.716;8.760;2022-12-19T09:46:47;3.60;99.90
20208;DHT22;10263;48.716;8.760;2022-12-19T09:49:17;3.60;99.90
20208;DHT22;10263;48.716;8.760;2022-12-19T09:51:51;3.60;99.90
20208;DHT22;10263;48.716;8.760;2022-12-19T09:54:23;3.60;99.90
20208;DHT22;10263;48.716;8.760;2022-12-19T09:56:56;3.80;99.90
20208;DHT22;10263;48.716;8.760;2022-12-19T09:59:27;3.80;99.90
20208;DHT22;10263;48.716;8.760;2022-12-19T10:01:58;3.90;99.90
20208;DHT22;10263;48.716;8.760;2022-12-19T10:04:29;3.90;99.90
20208;DHT22;10263;48.716;8.760;2022-12-19T10:09:29;3.80;99.90
20208;DHT22;10263;48.716;8.760;2022-12-19T10:12:14;3.80;99.90
20208;DHT22;10263;48.716;8.760;2022-12-19T10:14:53;3.90;99.90
20208;DHT22;10263;48.716;8.760;2022-12-19T10:17:30;3.90;99.90
20208;DHT22;10263;48.716;8.760;2022-12-19T10:20:11;4.00;99.90
20208;DHT22;10263;48.716;8.760;2022-12-19T10:22:49;4.00;99.90
20208;DHT22;10263;48.716;8.760;2022-12-19T10:25:31;4.00;99.90
20208;DHT22;10263;48.716;8.760;2022-12-19T10:28:11;4.00;99.90
20208;DHT22;10263;48.716;8.760;2022-12-19T10:30:46;4.00;99.90
20208;DHT22;10263;48.716;8.760;2022-12-19T10:33:23;4.10;99.90
20208;DHT22;10263;48.716;8.760;2022-12-19T10:35:54;4.10;99.90
20208;DHT22;10263;48.716;8.760;2022-12-19T10:38:28;4.20;99.90
20208;DHT22;10263;48.716;8.760;2022-12-19T10:41:10;4.20;99.90
20208;DHT22;10263;48.716;8.760;2022-12-19T10:43:46;4.30;99.90
20208;DHT22;10263;48.716;8.760;2022-12-19T10:46:21;4.30;99.90
20208;DHT22;10263;48.716;8.760;2022-12-19T10:48:50;4.30;99.90
20208;DHT22;10263;48.716;8.760;2022-12-19T10:51:22;4.40;99.90
20208;DHT22;10263;48.716;8.760;2022-12-19T10:53:52;4.40;99.90
20208;DHT22;10263;48.716;8.760;2022-12-19T10:56:21;4.50;99.90
20208;DHT22;10263;48.716;8.760;2022-12-19T10:58:53;4.60;99.90
20208;DHT22;10263;48.716;8.760;2022-12-19T11:01:25;4.80;99.90
20208;DHT22;10263;48.716;8.760;2022-12-19T11:04:12;5.10;99.90
20208;DHT22;10263;48.716;8.760;2022-12-19T11:06:47;5.30;99.90
20208;DHT22;10263;48.716;8.760;2022-12-19T11:09:24;5.30;99.90
20208;DHT22;10263;48.716;8.760;2022-12-19T11:11:58;5.40;99.90
20208;DHT22;10263;48.716;8.760;2022-12-19T11:14:27;5.30;99.90
20208;DHT22;10263;48.716;8.760;2022-12-19T11:19:27;5.30;99.90
20208;DHT22;10263;48.716;8.760;2022-12-19T11:21:56;5.40;99.90
20208;DHT22;10263;48.716;8.760;2022-12-19T11:24:27;5.40;99.90
20208;DHT22;10263;48.716;8.760;2022-12-19T11:29:26;5.70;99.90
20208;DHT22;10263;48.716;8.760;2022-12-19T11:31:55;5.90;99.90
20208;DHT22;10263;48.716;8.760;2022-12-19T11:34:25;6.20;99.90
20208;DHT22;10263;48.716;8.760;2022-12-19T11:36:55;6.30;99.90
20208;DHT22;10263;48.716;8.760;2022-12-19T11:39:32;6.50;99.90
20208;DHT22;10263;48.716;8.760;2022-12-19T11:42:06;6.50;99.90
20208;DHT22;10263;48.716;8.760;2022-12-19T11:44:43;6.50;99.90
20208;DHT22;10263;48.716;8.760;2022-12-19T11:47:23;6.80;99.90
20208;DHT22;10263;48.716;8.760;2022-12-19T11:49:54;7.00;99.90
20208;DHT22;10263;48.716;8.760;2022-12-19T11:52:35;7.10;99.90
20208;DHT22;10263;48.716;8.760;2022-12-19T11:55:14;7.30;99.90
20208;DHT22;10263;48.716;8.760;2022-12-19T12:00:15;7.10;99.90
20208;DHT22;10263;48.716;8.760;2022-12-19T12:03:12;6.90;99.90
20208;DHT22;10263;48.716;8.760;2022-12-19T12:05:45;6.90;99.90
20208;DHT22;10263;48.716;8.760;2022-12-19T12:08:38;6.60;99.90
20208;DHT22;10263;48.716;8.760;2022-12-19T12:11:20;6.50;99.90
20208;DHT22;10263;48.716;8.760;2022-12-19T12:14:02;6.40;99.90
20208;DHT22;10263;48.716;8.760;2022-12-19T12:16:39;6.20;99.90
20208;DHT22;10263;48.716;8.760;2022-12-19T12:19:16;6.10;99.90
20208;DHT22;10263;48.716;8.760;2022-12-19T12:21:51;6.00;99.90
20208;DHT22;10263;48.716;8.760;2022-12-19T12:24:31;6.00;99.90
20208;DHT22;10263;48.716;8.760;2022-12-19T12:27:12;6.10;99.90
20208;DHT22;10263;48.716;8.760;2022-12-19T12:29:48;6.20;99.90
20208;DHT22;10263;48.716;8.760;2022-12-19T12:32:27;6.30;99.90
20208;DHT22;10263;48.716;8.760;2022-12-19T12:35:05;6.40;99.90
20208;DHT22;10263;48.716;8.760;2022-12-19T12:37:46;6.40;99.90
20208;DHT22;10263;48.716;8.760;2022-12-19T12:43:27;6.40;99.90
20208;DHT22;10263;48.716;8.760;2022-12-19T12:48:26;6.40;99.90
20208;DHT22;10263;48.716;8.760;2022-12-19T12:50:57;6.30;99.90
20208;DHT22;10263;48.716;8.760;2022-12-19T12:53:28;6.30;99.90
20208;DHT22;10263;48.716;8.760;2022-12-19T12:55:58;6.50;99.90
20208;DHT22;10263;48.716;8.760;2022-12-19T12:58:42;6.70;99.90
20208;DHT22;10263;48.716;8.760;2022-12-19T13:01:10;6.80;99.90
20208;DHT22;10263;48.716;8.760;2022-12-19T13:03:41;6.80;99.90
20208;DHT22;10263;48.716;8.760;2022-12-19T13:06:24;6.80;99.90
20208;DHT22;10263;48.716;8.760;2022-12-19T13:08:55;6.70;99.90
20208;DHT22;10263;48.716;8.760;2022-12-19T13:11:38;6.60;99.90
20208;DHT22;10263;48.716;8.760;2022-12-19T13:14:48;6.50;99.90
20208;DHT22;10263;48.716;8.760;2022-12-19T13:17:23;6.40;99.90
20208;DHT22;10263;48.716;8.760;2022-12-19T13:19:57;6.20;99.90
20208;DHT22;10263;48.716;8.760;2022-12-19T13:22:42;6.10;99.90
20208;DHT22;10263;48.716;8.760;2022-12-19T13:25:47;6.00;99.90
20208;DHT22;10263;48.716;8.760;2022-12-19T13:31:15;5.80;99.90
20208;DHT22;10263;48.716;8.760;2022-12-19T13:34:09;5.60;99.90
20208;DHT22;10263;48.716;8.760;2022-12-19T13:36:52;5.50;99.90
20208;DHT22;10263;48.716;8.760;2022-12-19T13:39:27;5.50;99.90
20208;DHT22;10263;48.716;8.760;2022-12-19T13:42:11;5.40;99.90
20208;DHT22;10263;48.716;8.760;2022-12-19T13:45:01;5.40;99.90
20208;DHT22;10263;48.716;8.760;2022-12-19T13:47:31;5.40;99.90
20208;DHT22;10263;48.716;8.760;2022-12-19T13:50:03;5.40;99.90
20208;DHT22;10263;48.716;8.760;2022-12-19T13:52:31;5.30;99.90
20208;DHT22;10263;48.716;8.760;2022-12-19T13:57:27;5.30;99.90
20208;DHT22;10263;48.716;8.760;2022-12-19T13:59:57;5.30;99.90
20208;DHT22;10263;48.716;8.760;2022-12-19T14:02:28;5.30;99.90
20208;DHT22;10263;48.716;8.760;2022-12-19T14:04:56;5.30;99.90
20208;DHT22;10263;48.716;8.760;2022-12-19T14:07:31;5.30;99.90
20208;DHT22;10263;48.716;8.760;2022-12-19T14:12:29;5.30;99.90
20208;DHT22;10263;48.716;8.760;2022-12-19T14:15:23;5.20;99.90
20208;DHT22;10263;48.716;8.760;2022-12-19T14:20:20;5.30;99.90
20208;DHT22;10263;48.716;8.760;2022-12-19T14:22:48;5.30;99.90
20208;DHT22;10263;48.716;8.760;2022-12-19T14:25:15;5.30;99.90
20208;DHT22;10263;48.716;8.760;2022-12-19T14:27:45;5.20;99.90
20208;DHT22;10263;48.716;8.760;2022-12-19T14:30:18;5.20;99.90
20208;DHT22;10263;48.716;8.760;2022-12-19T14:32:48;5.00;99.90
20208;DHT22;10263;48.716;8.760;2022-12-19T14:35:18;4.90;99.90
20208;DHT22;10263;48.716;8.760;2022-12-19T14:37:46;4.90;99.90
20208;DHT22;10263;48.716;8.760;2022-12-19T14:40:21;4.90;99.90
20208;DHT22;10263;48.716;8.760;2022-12-19T14:42:50;4.80;99.90
20208;DHT22;10263;48.716;8.760;2022-12-19T14:45:40;4.80;99.90
20208;DHT22;10263;48.716;8.760;2022-12-19T14:48:27;4.80;99.90
20208;DHT22;10263;48.716;8.760;2022-12-19T14:51:13;4.80;99.90
20208;DHT22;10263;48.716;8.760;2022-12-19T14:54:01;4.70;99.90
20208;DHT22;10263;48.716;8.760;2022-12-19T14:56:33;4.70;99.90
20208;DHT22;10263;48.716;8.760;2022-12-19T14:59:20;4.70;99.90
20208;DHT22;10263;48.716;8.760;2022-12-19T15:01:50;4.60;99.90
20208;DHT22;10263;48.716;8.760;2022-12-19T15:04:22;4.50;99.90
20208;DHT22;10263;48.716;8.760;2022-12-19T15:06:53;4.50;99.90
20208;DHT22;10263;48.716;8.760;2022-12-19T15:09:21;4.40;99.90
20208;DHT22;10263;48.716;8.760;2022-12-19T15:11:54;4.50;99.90
20208;DHT22;10263;48.716;8.760;2022-12-19T15:14:42;4.50;99.90
20208;DHT22;10263;48.716;8.760;2022-12-19T15:17:18;4.50;99.90
20208;DHT22;10263;48.716;8.760;2022-12-19T15:27:11;4.30;99.90
20208;DHT22;10263;48.716;8.760;2022-12-19T15:32:11;4.20;99.90
20208;DHT22;10263;48.716;8.760;2022-12-19T15:37:08;4.20;99.90
20208;DHT22;10263;48.716;8.760;2022-12-19T15:39:35;4.20;99.90
20208;DHT22;10263;48.716;8.760;2022-12-19T15:42:02;4.10;99.90
20208;DHT22;10263;48.716;8.760;2022-12-19T15:44:33;4.00;99.90
20208;DHT22;10263;48.716;8.760;2022-12-19T15:47:03;4.10;99.90
20208;DHT22;10263;48.716;8.760;2022-12-19T15:52:00;4.00;99.90
20208;DHT22;10263;48.716;8.760;2022-12-19T15:56:54;3.90;99.90
20208;DHT22;10263;48.716;8.760;2022-12-19T15:59:24;3.90;99.90
20208;DHT22;10263;48.716;8.760;2022-12-19T16:01:55;3.90;99.90
20208;DHT22;10263;48.716;8.760;2022-12-19T16:04:23;4.00;99.90
20208;DHT22;10263;48.716;8.760;2022-12-19T16:06:51;3.90;99.90
20208;DHT22;10263;48.716;8.760;2022-12-19T16:09:19;3.90;99.90
20208;DHT22;10263;48.716;8.760;2022-12-19T16:16:41;3.80;99.90
20208;DHT22;10263;48.716;8.760;2022-12-19T16:19:26;3.90;99.90
20208;DHT22;10263;48.716;8.760;2022-12-19T16:21:54;3.80;99.90
20208;DHT22;10263;48.716;8.760;2022-12-19T16:26:51;3.80;99.90
20208;DHT22;10263;48.716;8.760;2022-12-19T16:29:20;3.90;99.90
20208;DHT22;10263;48.716;8.760;2022-12-19T16:34:18;3.80;99.90
20208;DHT22;10263;48.716;8.760;2022-12-19T16:36:47;3.80;99.90
20208;DHT22;10263;48.716;8.760;2022-12-19T16:41:43;3.70;99.90
20208;DHT22;10263;48.716;8.760;2022-12-19T16:44:15;3.60;99.90
20208;DHT22;10263;48.716;8.760;2022-12-19T16:49:13;3.50;99.90
20208;DHT22;10263;48.716;8.760;2022-12-19T16:51:40;3.50;99.90
20208;DHT22;10263;48.716;8.760;2022-12-19T16:54:10;3.50;99.90
20208;DHT22;10263;48.716;8.760;2022-12-19T16:56:38;3.50;99.90
20208;DHT22;10263;48.716;8.760;2022-12-19T16:59:13;3.40;99.90
20208;DHT22;10263;48.716;8.760;2022-12-19T17:01:41;3.50;99.90
20208;DHT22;10263;48.716;8.760;2022-12-19T17:04:12;3.40;99.90
20208;DHT22;10263;48.716;8.760;2022-12-19T17:09:08;3.40;99.90
20208;DHT22;10263;48.716;8.760;2022-12-19T17:11:38;3.50;99.90
20208;DHT22;10263;48.716;8.760;2022-12-19T17:14:10;3.50;99.90
20208;DHT22;10263;48.716;8.760;2022-12-19T17:26:27;3.50;99.90
20208;DHT22;10263;48.716;8.760;2022-12-19T17:31:24;3.60;99.90
20208;DHT22;10263;48.716;8.760;2022-12-19T17:33:53;3.50;99.90
20208;DHT22;10263;48.716;8.760;2022-12-19T17:41:15;3.60;99.90
20208;DHT22;10263;48.716;8.760;2022-12-19T17:43:43;3.60;99.90
20208;DHT22;10263;48.716;8.760;2022-12-19T17:46:16;3.50;99.90
20208;DHT22;10263;48.716;8.760;2022-12-19T17:48:44;3.50;99.90
20208;DHT22;10263;48.716;8.760;2022-12-19T17:51:15;3.50;99.90
20208;DHT22;10263;48.716;8.760;2022-12-19T17:56:12;3.50;99.90
20208;DHT22;10263;48.716;8.760;2022-12-19T18:01:18;3.50;99.90
20208;DHT22;10263;48.716;8.760;2022-12-19T18:03:48;3.40;99.90
20208;DHT22;10263;48.716;8.760;2022-12-19T18:11:16;3.50;99.90
20208;DHT22;10263;48.716;8.760;2022-12-19T18:13:43;3.50;99.90
20208;DHT22;10263;48.716;8.760;2022-12-19T18:16:13;3.40;99.90
20208;DHT22;10263;48.716;8.760;2022-12-19T18:21:10;3.40;99.90
20208;DHT22;10263;48.716;8.760;2022-12-19T18:31:02;3.40;99.90
20208;DHT22;10263;48.716;8.760;2022-12-19T18:33:36;3.40;99.90
20208;DHT22;10263;48.716;8.760;2022-12-19T18:36:05;3.40;99.90
20208;DHT22;10263;48.716;8.760;2022-12-19T18:38:32;3.40;99.90
20208;DHT22;10263;48.716;8.760;2022-12-19T18:40:59;3.50;99.90
20208;DHT22;10263;48.716;8.760;2022-12-19T18:43:26;3.50;99.90
20208;DHT22;10263;48.716;8.760;2022-12-19T18:45:55;3.50;99.90
20208;DHT22;10263;48.716;8.760;2022-12-19T18:48:24;3.50;99.90
20208;DHT22;10263;48.716;8.760;2022-12-19T18:50:54;3.50;99.90
20208;DHT22;10263;48.716;8.760;2022-12-19T18:53:24;3.50;99.90
20208;DHT22;10263;48.716;8.760;2022-12-19T19:03:17;3.50;99.90
20208;DHT22;10263;48.716;8.760;2022-12-19T19:05:45;3.50;99.90
20208;DHT22;10263;48.716;8.760;2022-12-19T19:08:15;3.50;99.90
20208;DHT22;10263;48.716;8.760;2022-12-19T19:10:47;3.50;99.90
20208;DHT22;10263;48.716;8.760;2022-12-19T19:13:17;3.50;99.90
20208;DHT22;10263;48.716;8.760;2022-12-19T19:15:46;3.60;99.90
20208;DHT22;10263;48.716;8.760;2022-12-19T19:18:16;3.50;99.90
20208;DHT22;10263;48.716;8.760;2022-12-19T19:20:46;3.50;99.90
20208;DHT22;10263;48.716;8.760;2022-12-19T19:23:16;3.60;99.90
20208;DHT22;10263;48.716;8.760;2022-12-19T19:25:43;3.60;99.90
20208;DHT22;10263;48.716;8.760;2022-12-19T19:28:10;3.50;99.90
20208;DHT22;10263;48.716;8.760;2022-12-19T19:30:38;3.40;99.90
20208;DHT22;10263;48.716;8.760;2022-12-19T19:33:08;3.50;99.90
20208;DHT22;10263;48.716;8.760;2022-12-19T19:35:37;3.50;99.90
20208;DHT22;10263;48.716;8.760;2022-12-19T19:38:06;3.50;99.90
20208;DHT22;10263;48.716;8.760;2022-12-19T19:40:35;3.50;99.90
20208;DHT22;10263;48.716;8.760;2022-12-19T19:43:03;3.50;99.90
20208;DHT22;10263;48.716;8.760;2022-12-19T19:48:00;3.50;99.90
20208;DHT22;10263;48.716;8.760;2022-12-19T19:52:55;3.40;99.90
20208;DHT22;10263;48.716;8.760;2022-12-19T19:57:50;3.50;99.90
20208;DHT22;10263;48.716;8.760;2022-12-19T20:00:17;3.50;99.90
20208;DHT22;10263;48.716;8.760;2022-12-19T20:10:07;3.50;99.90
20208;DHT22;10263;48.716;8.760;2022-12-19T20:15:03;3.50;99.90
20208;DHT22;10263;48.716;8.760;2022-12-19T20:17:30;3.60;99.90
20208;DHT22;10263;48.716;8.760;2022-12-19T20:22:24;3.50;99.90
20208;DHT22;10263;48.716;8.760;2022-12-19T20:27:19;3.70;99.90
20208;DHT22;10263;48.716;8.760;2022-12-19T20:32:14;3.60;99.90
20208;DHT22;10263;48.716;8.760;2022-12-19T20:37:08;3.60;99.90
20208;DHT22;10263;48.716;8.760;2022-12-19T20:49:26;3.60;99.90
20208;DHT22;10263;48.716;8.760;2022-12-19T21:06:38;4.70;99.90
20208;DHT22;10263;48.716;8.760;2022-12-19T21:21:25;3.50;99.90
20208;DHT22;10263;48.716;8.760;2022-12-19T21:23:53;2.40;99.90
20208;DHT22;10263;48.716;8.760;2022-12-19T21:26:21;3.50;99.90
20208;DHT22;10263;48.716;8.760;2022-12-19T21:31:18;3.50;99.90
20208;DHT22;10263;48.716;8.760;2022-12-19T21:36:14;3.50;99.90
20208;DHT22;10263;48.716;8.760;2022-12-19T21:41:12;3.50;99.90
20208;DHT22;10263;48.716;8.760;2022-12-19T21:46:13;3.50;99.90
20208;DHT22;10263;48.716;8.760;2022-12-19T21:48:41;3.60;99.90
20208;DHT22;10263;48.716;8.760;2022-12-19T21:53:36;3.60;99.90
20208;DHT22;10263;48.716;8.760;2022-12-19T21:56:05;3.60;99.90
20208;DHT22;10263;48.716;8.760;2022-12-19T21:58:34;3.60;99.90
20208;DHT22;10263;48.716;8.760;2022-12-19T22:01:08;3.60;99.90
20208;DHT22;10263;48.716;8.760;2022-12-19T22:08:30;3.50;99.90
20208;DHT22;10263;48.716;8.760;2022-12-19T22:10:57;2.70;99.90
20208;DHT22;10263;48.716;8.760;2022-12-19T22:13:24;3.50;99.90
20208;DHT22;10263;48.716;8.760;2022-12-19T22:15:53;3.60;99.90
20208;DHT22;10263;48.716;8.760;2022-12-19T22:25:43;3.50;99.90
20208;DHT22;10263;48.716;8.760;2022-12-19T22:30:37;3.50;99.90
20208;DHT22;10263;48.716;8.760;2022-12-19T22:33:05;3.60;99.90
20208;DHT22;10263;48.716;8.760;2022-12-19T22:35:33;3.60;99.90
20208;DHT22;10263;48.716;8.760;2022-12-19T22:50:17;3.50;99.90
20208;DHT22;10263;48.716;8.760;2022-12-19T22:52:44;3.60;99.90
20208;DHT22;10263;48.716;8.760;2022-12-19T23:00:08;3.40;99.90
20208;DHT22;10263;48.716;8.760;2022-12-19T23:02:37;3.50;99.90
20208;DHT22;10263;48.716;8.760;2022-12-19T23:05:05;3.40;99.90
20208;DHT22;10263;48.716;8.760;2022-12-19T23:07:33;3.30;99.90
20208;DHT22;10263;48.716;8.760;2022-12-19T23:10:00;3.20;99.90
20208;DHT22;10263;48.716;8.760;2022-12-19T23:19:49;3.30;99.90
20208;DHT22;10263;48.716;8.760;2022-12-19T23:24:44;3.30;99.90
20208;DHT22;10263;48.716;8.760;2022-12-19T23:29:38;3.30;99.90
20208;DHT22;10263;48.716;8.760;2022-12-19T23:32:05;3.30;99.90
20208;DHT22;10263;48.716;8.760;2022-12-19T23:34:32;3.30;99.90